Time;durP1;ratioP1;P1;durP2;ratioP2;P2;SDS_P1;SDS_P2;PMS_P1;PMS_P2;Temp;Humidity;BMP_temperature;BMP_pressure;BME280_temperature;BME280_humidity;BME280_pressure;Samples;Min_cycle;Max_cycle;Signal;HPM_P1;HPM_P2
2021/07/20 00:00:26;;;;;;;8.23;5.35;;;14.00;99.90;;;;;;5057218;28;20057;-78
2021/07/20 00:02:56;;;;;;;8.40;5.45;;;13.90;99.90;;;;;;5056762;28;20497;-78
2021/07/20 00:05:25;;;;;;;6.78;5.68;;;13.90;99.90;;;;;;5056609;28;20041;-79
2021/07/20 00:07:52;;;;;;;11.50;5.05;;;14.00;99.90;;;;;;5062933;28;20128;-77
2021/07/20 00:10:23;;;;;;;8.40;6.30;;;14.00;99.90;;;;;;5075455;28;20106;-77
2021/07/20 00:12:51;;;;;;;9.05;5.45;;;14.00;99.90;;;;;;5058188;28;20041;-77
2021/07/20 00:15:18;;;;;;;7.82;5.18;;;14.00;99.90;;;;;;5064538;28;20289;-78
2021/07/20 00:17:48;;;;;;;8.23;5.75;;;14.10;99.90;;;;;;5075815;28;20114;-79
2021/07/20 00:20:21;;;;;;;8.45;5.75;;;14.10;99.90;;;;;;5075303;28;20044;-79
2021/07/20 00:22:47;;;;;;;7.90;5.35;;;14.00;99.90;;;;;;5077859;28;20408;-79
2021/07/20 00:25:15;;;;;;;6.40;5.63;;;14.00;99.90;;;;;;5079536;28;20045;-77
2021/07/20 00:27:42;;;;;;;7.38;5.10;;;14.00;99.90;;;;;;5059400;28;20053;-78
2021/07/20 00:30:10;;;;;;;9.05;6.00;;;14.00;99.90;;;;;;5057455;28;20120;-77
2021/07/20 00:32:38;;;;;;;7.70;5.22;;;14.00;99.90;;;;;;5055782;28;20049;-77
2021/07/20 00:35:07;;;;;;;7.15;5.40;;;13.90;99.90;;;;;;5055973;28;20049;-78
2021/07/20 00:37:35;;;;;;;8.00;5.32;;;14.00;99.90;;;;;;5056568;28;20118;-77
2021/07/20 00:40:02;;;;;;;8.13;5.97;;;14.10;99.90;;;;;;5055206;28;20045;-78
2021/07/20 00:42:29;;;;;;;8.77;5.78;;;14.00;99.90;;;;;;5055447;28;20508;-77
2021/07/20 00:44:55;;;;;;;10.00;5.70;;;13.80;99.90;;;;;;5055281;28;20071;-78
2021/07/20 00:47:22;;;;;;;7.32;5.75;;;13.80;99.90;;;;;;5069757;28;20481;-77
2021/07/20 00:49:49;;;;;;;6.68;5.40;;;13.80;99.90;;;;;;5067872;28;20048;-77
2021/07/20 00:52:15;;;;;;;8.15;5.25;;;13.80;99.90;;;;;;5055213;28;20496;-75
2021/07/20 00:54:43;;;;;;;7.45;5.40;;;13.90;99.90;;;;;;5059201;28;20048;-76
2021/07/20 00:57:10;;;;;;;8.23;6.05;;;14.00;99.90;;;;;;5071712;28;20048;-76
2021/07/20 00:59:38;;;;;;;8.23;5.80;;;14.10;99.90;;;;;;5054565;28;20098;-77
2021/07/20 01:02:05;;;;;;;10.32;5.50;;;14.00;99.90;;;;;;5055322;28;20045;-76
2021/07/20 01:04:32;;;;;;;9.52;5.90;;;14.00;99.90;;;;;;5067709;28;20044;-76
2021/07/20 01:07:01;;;;;;;8.63;5.50;;;14.10;99.90;;;;;;5067334;28;20099;-77
2021/07/20 01:09:29;;;;;;;7.43;5.90;;;14.10;99.90;;;;;;5054163;28;20102;-77
2021/07/20 01:11:57;;;;;;;5.95;5.13;;;14.10;99.90;;;;;;5054459;28;20049;-76
2021/07/20 01:14:26;;;;;;;10.55;6.25;;;14.10;99.90;;;;;;5072452;28;20045;-77
2021/07/20 01:16:52;;;;;;;8.70;5.40;;;14.00;99.90;;;;;;5059075;28;20459;-78
2021/07/20 01:19:19;;;;;;;8.98;5.45;;;14.00;99.90;;;;;;5053489;28;20394;-78
2021/07/20 01:21:47;;;;;;;8.40;5.40;;;14.00;99.90;;;;;;5061606;28;20555;-78
2021/07/20 01:24:17;;;;;;;7.10;5.47;;;14.00;99.90;;;;;;5074069;28;20045;-80
2021/07/20 01:26:44;;;;;;;7.97;6.28;;;14.10;99.90;;;;;;5054772;28;20056;-77
2021/07/20 01:29:11;;;;;;;7.22;5.97;;;14.20;99.90;;;;;;5065944;28;20451;-78
2021/07/20 01:31:41;;;;;;;11.00;5.05;;;14.30;99.90;;;;;;5054847;28;20067;-78
2021/07/20 01:34:11;;;;;;;10.25;6.43;;;14.30;99.90;;;;;;5073432;28;20044;-77
2021/07/20 01:36:40;;;;;;;10.15;5.93;;;14.30;99.90;;;;;;5056983;28;20099;-76
2021/07/20 01:39:10;;;;;;;7.70;4.60;;;14.20;99.90;;;;;;5053953;28;20041;-75
2021/07/20 01:41:39;;;;;;;7.68;4.90;;;14.20;99.90;;;;;;5053704;28;20094;-74
2021/07/20 01:44:09;;;;;;;6.28;4.85;;;14.20;99.90;;;;;;5071478;28;20049;-75
2021/07/20 01:46:37;;;;;;;8.65;5.30;;;14.30;99.90;;;;;;5058296;28;20091;-75
2021/07/20 01:49:07;;;;;;;6.45;4.88;;;14.30;99.90;;;;;;5062849;28;20045;-75
2021/07/20 01:51:35;;;;;;;8.82;5.35;;;14.40;99.90;;;;;;5073752;28;20044;-77
2021/07/20 01:54:03;;;;;;;8.32;5.85;;;14.40;99.90;;;;;;5073245;28;20045;-74
2021/07/20 01:56:30;;;;;;;7.35;6.18;;;14.40;99.90;;;;;;5071719;28;20040;-75
2021/07/20 01:58:58;;;;;;;10.70;5.25;;;14.40;99.90;;;;;;5053839;28;20045;-75
2021/07/20 02:01:30;;;;;;;6.75;4.82;;;14.30;99.90;;;;;;5054126;28;20045;-76
2021/07/20 02:04:14;;;;;;;10.75;5.75;;;14.30;99.90;;;;;;5054157;28;20048;-73
2021/07/20 02:09:31;;;;;;;8.00;5.35;;;14.20;99.90;;;;;;5055782;28;20417;-72
2021/07/20 02:11:59;;;;;;;7.22;4.85;;;14.30;99.90;;;;;;5053598;28;20091;-72
2021/07/20 02:14:31;;;;;;;7.82;5.40;;;14.30;99.90;;;;;;5062563;28;20550;-78
2021/07/20 02:17:01;;;;;;;9.18;5.72;;;14.30;99.90;;;;;;5060863;28;20040;-75
2021/07/20 02:19:37;;;;;;;8.20;4.95;;;14.20;99.90;;;;;;5072232;28;20059;-78
2021/07/20 02:22:08;;;;;;;8.55;5.40;;;14.20;99.90;;;;;;5073313;28;20071;-82
2021/07/20 02:24:37;;;;;;;8.15;5.05;;;14.30;99.90;;;;;;5081802;28;20044;-78
2021/07/20 02:27:07;;;;;;;8.18;5.07;;;14.30;99.90;;;;;;5073918;28;20074;-79
2021/07/20 02:29:36;;;;;;;7.88;5.30;;;14.40;99.90;;;;;;5067178;28;20108;-79
2021/07/20 02:32:05;;;;;;;5.85;5.25;;;14.50;99.90;;;;;;5068708;28;20075;-77
2021/07/20 02:34:36;;;;;;;6.53;4.65;;;14.60;99.90;;;;;;5060444;28;20049;-74
2021/07/20 02:37:03;;;;;;;6.27;4.70;;;14.70;99.90;;;;;;5063076;28;20052;-78
2021/07/20 02:39:31;;;;;;;6.22;4.65;;;14.70;99.90;;;;;;5060483;28;20041;-77
2021/07/20 02:41:58;;;;;;;6.60;5.05;;;14.80;99.90;;;;;;5090634;28;20617;-77
2021/07/20 02:44:27;;;;;;;9.00;4.32;;;14.80;99.90;;;;;;5097964;28;20051;-77
2021/07/20 02:46:56;;;;;;;6.65;4.32;;;14.80;99.90;;;;;;5097801;28;20024;-80
2021/07/20 02:49:23;;;;;;;7.63;5.80;;;14.80;99.90;;;;;;5097134;28;20036;-77
2021/07/20 02:51:52;;;;;;;7.38;4.35;;;14.80;99.90;;;;;;5097530;28;20063;-77
2021/07/20 02:54:22;;;;;;;10.65;5.68;;;14.90;99.90;;;;;;5097731;28;20039;-77
2021/07/20 02:56:49;;;;;;;6.53;4.18;;;14.90;99.90;;;;;;5097836;28;20075;-77
2021/07/20 02:59:19;;;;;;;6.38;4.70;;;14.90;99.90;;;;;;5097366;28;20054;-77
2021/07/20 03:01:48;;;;;;;11.00;4.60;;;15.00;99.90;;;;;;5097645;28;20033;-77
2021/07/20 03:04:16;;;;;;;6.32;4.50;;;15.00;99.90;;;;;;5097316;28;20033;-79
2021/07/20 03:06:46;;;;;;;8.15;5.07;;;15.00;99.90;;;;;;5097226;28;20041;-83
2021/07/20 03:09:13;;;;;;;9.80;7.15;;;15.00;99.90;;;;;;5097028;28;20059;-85
2021/07/20 03:11:43;;;;;;;15.35;10.25;;;15.00;99.90;;;;;;5097252;28;20063;-83
2021/07/20 03:14:13;;;;;;;23.13;13.95;;;14.90;99.90;;;;;;5096963;28;20053;-85
2021/07/20 03:16:41;;;;;;;21.88;13.90;;;14.90;99.90;;;;;;5097228;28;20108;-85
2021/07/20 03:19:10;;;;;;;22.60;15.98;;;14.90;99.90;;;;;;5096725;28;20024;-84
2021/07/20 03:21:41;;;;;;;21.38;12.35;;;15.00;99.90;;;;;;5097373;28;20025;-86
2021/07/20 03:24:09;;;;;;;40.45;24.20;;;14.90;99.90;;;;;;5097293;28;20062;-86
2021/07/20 03:26:37;;;;;;;28.35;16.83;;;14.90;99.90;;;;;;5096857;28;20058;-85
2021/07/20 03:29:05;;;;;;;20.30;11.57;;;14.90;99.90;;;;;;5095436;28;20024;-81
2021/07/20 03:31:32;;;;;;;20.60;10.07;;;14.90;99.90;;;;;;5098629;28;20045;-77
2021/07/20 03:34:00;;;;;;;14.40;9.05;;;15.00;99.90;;;;;;5101309;28;20025;-76
2021/07/20 03:36:28;;;;;;;14.85;9.98;;;14.90;99.90;;;;;;5101281;28;20036;-77
2021/07/20 03:38:56;;;;;;;19.77;11.43;;;14.90;99.90;;;;;;5099809;28;20049;-79
2021/07/20 03:41:26;;;;;;;16.52;9.10;;;14.80;99.90;;;;;;5095296;28;20041;-78
2021/07/20 03:43:54;;;;;;;12.93;8.35;;;14.90;99.90;;;;;;5085491;28;20048;-80
2021/07/20 03:46:21;;;;;;;30.45;15.95;;;14.90;99.90;;;;;;5081678;28;20044;-80
2021/07/20 03:48:48;;;;;;;26.45;14.27;;;14.90;99.90;;;;;;5080822;28;20045;-82
2021/07/20 03:51:16;;;;;;;14.82;9.57;;;14.90;99.90;;;;;;5080356;28;20098;-81
2021/07/20 03:53:44;;;;;;;18.60;11.23;;;15.00;99.90;;;;;;5081015;28;20049;-81
2021/07/20 03:56:15;;;;;;;19.65;11.52;;;15.00;99.90;;;;;;5081506;28;20458;-82
2021/07/20 03:58:44;;;;;;;22.70;12.43;;;15.10;99.90;;;;;;5080158;28;20052;-81
2021/07/20 04:01:13;;;;;;;10.55;6.60;;;15.20;99.90;;;;;;5080947;28;20048;-82
2021/07/20 04:03:40;;;;;;;19.85;11.68;;;15.20;99.90;;;;;;5081493;28;20084;-82
2021/07/20 04:06:08;;;;;;;11.40;6.45;;;15.10;99.90;;;;;;5080431;28;20094;-81
2021/07/20 04:08:38;;;;;;;7.20;5.40;;;15.10;99.90;;;;;;5080290;28;20106;-82
2021/07/20 04:11:06;;;;;;;16.67;6.90;;;15.10;99.90;;;;;;5080719;28;20044;-80
2021/07/20 04:13:35;;;;;;;19.02;11.90;;;15.00;99.90;;;;;;5080908;28;20422;-80
2021/07/20 04:16:05;;;;;;;11.45;7.28;;;15.00;99.90;;;;;;5080209;28;20078;-82
2021/07/20 04:18:34;;;;;;;9.73;4.93;;;15.10;99.90;;;;;;5078425;28;20106;-81
2021/07/20 04:21:03;;;;;;;7.05;5.70;;;15.20;99.90;;;;;;5079396;28;20090;-80
2021/07/20 04:23:29;;;;;;;6.85;3.47;;;15.30;99.90;;;;;;5078633;28;20078;-80
2021/07/20 04:25:57;;;;;;;13.85;9.13;;;15.20;99.90;;;;;;5079011;28;20095;-80
2021/07/20 04:28:25;;;;;;;21.55;12.52;;;15.30;99.90;;;;;;5078726;28;20049;-80
2021/07/20 04:30:54;;;;;;;16.40;9.43;;;15.20;99.90;;;;;;5077978;28;20056;-81
2021/07/20 04:33:25;;;;;;;12.15;6.57;;;15.30;99.90;;;;;;5078060;28;20102;-80
2021/07/20 04:35:52;;;;;;;9.02;5.47;;;15.40;99.90;;;;;;5078389;28;20484;-80
2021/07/20 04:38:21;;;;;;;11.93;7.63;;;15.50;99.90;;;;;;5078003;28;20041;-80
2021/07/20 04:40:48;;;;;;;13.48;8.10;;;15.60;99.90;;;;;;5078374;28;20045;-82
2021/07/20 04:43:15;;;;;;;11.82;8.13;;;15.60;99.90;;;;;;5079227;28;20044;-81
2021/07/20 04:45:42;;;;;;;12.18;7.53;;;15.70;99.90;;;;;;5080143;28;20454;-81
2021/07/20 04:48:14;;;;;;;20.02;11.07;;;15.70;99.90;;;;;;5080379;28;20044;-83
2021/07/20 04:50:40;;;;;;;;;;;15.70;99.90;;;;;;5080370;28;20051;-82
2021/07/20 04:53:10;;;;;;;8.85;5.90;;;15.70;99.90;;;;;;5080364;28;19925;-82
2021/07/20 04:55:38;;;;;;;6.45;4.30;;;15.70;99.90;;;;;;5079911;28;20098;-83
2021/07/20 04:58:06;;;;;;;25.55;13.05;;;15.60;99.90;;;;;;5079011;28;20064;-81
2021/07/20 05:00:32;;;;;;;10.57;4.57;;;15.70;99.90;;;;;;5077900;28;20040;-82
2021/07/20 05:03:01;;;;;;;15.40;7.50;;;15.70;99.90;;;;;;5077758;28;20113;-80
2021/07/20 05:05:32;;;;;;;15.18;8.80;;;15.80;99.90;;;;;;5078510;28;20040;-80
2021/07/20 05:08:02;;;;;;;13.00;8.40;;;15.90;99.90;;;;;;5077929;28;20052;-81
2021/07/20 05:10:29;;;;;;;19.40;11.30;;;16.00;99.90;;;;;;5077058;28;20086;-81
2021/07/20 05:12:58;;;;;;;9.63;4.78;;;16.10;99.90;;;;;;5079573;28;20094;-82
2021/07/20 05:15:24;;;;;;;23.63;13.32;;;16.10;99.90;;;;;;5081009;28;20385;-83
2021/07/20 05:17:51;;;;;;;17.70;9.02;;;16.10;99.90;;;;;;5081210;28;20052;-81
2021/07/20 05:20:19;;;;;;;6.88;5.00;;;16.20;99.90;;;;;;5081332;28;20094;-82
2021/07/20 05:22:49;;;;;;;9.27;4.88;;;16.30;99.90;;;;;;5080599;28;20110;-82
2021/07/20 05:25:15;;;;;;;28.02;13.43;;;16.30;99.90;;;;;;5079773;28;20106;-82
2021/07/20 05:27:46;;;;;;;34.38;20.92;;;16.40;99.90;;;;;;5077453;28;20071;-81
2021/07/20 05:30:14;;;;;;;17.77;10.25;;;16.50;99.90;;;;;;5076748;28;20056;-82
2021/07/20 05:32:42;;;;;;;32.42;18.83;;;16.60;99.90;;;;;;5076127;28;20272;-82
2021/07/20 05:35:12;;;;;;;14.20;9.25;;;16.80;99.90;;;;;;5075091;28;20102;-82
2021/07/20 05:37:40;;;;;;;11.50;7.32;;;16.90;99.90;;;;;;5075300;28;20060;-81
2021/07/20 05:40:10;;;;;;;13.27;8.48;;;16.90;99.90;;;;;;5075218;28;20109;-80
2021/07/20 05:42:37;;;;;;;6.93;3.97;;;17.10;99.90;;;;;;5076089;28;20048;-80
2021/07/20 05:45:06;;;;;;;14.23;9.15;;;17.10;99.90;;;;;;5076147;28;20121;-80
2021/07/20 05:47:35;;;;;;;11.25;5.65;;;17.20;99.90;;;;;;5075442;28;20045;-81
2021/07/20 05:50:01;;;;;;;14.88;9.20;;;17.30;99.90;;;;;;5074108;28;20048;-82
2021/07/20 05:52:29;;;;;;;11.52;7.25;;;17.50;99.90;;;;;;5075348;28;20463;-81
2021/07/20 05:54:57;;;;;;;7.05;3.70;;;17.60;99.90;;;;;;5073719;28;20056;-80
2021/07/20 05:57:27;;;;;;;3.17;2.88;;;17.50;99.90;;;;;;5074879;28;20094;-79
2021/07/20 05:59:54;;;;;;;5.57;3.25;;;17.30;99.90;;;;;;5073923;28;20071;-79
2021/07/20 06:02:23;;;;;;;5.65;3.97;;;17.40;99.90;;;;;;5074969;28;20563;-81
2021/07/20 06:04:51;;;;;;;5.72;3.10;;;17.50;99.90;;;;;;5076983;28;20102;-80
2021/07/20 06:07:18;;;;;;;5.00;3.08;;;17.50;99.90;;;;;;5075501;28;20049;-80
2021/07/20 06:09:46;;;;;;;4.53;3.60;;;17.50;99.90;;;;;;5073981;28;20048;-79
2021/07/20 06:12:15;;;;;;;7.95;5.15;;;17.70;99.90;;;;;;5074221;28;20055;-81
2021/07/20 06:14:45;;;;;;;5.30;2.83;;;17.70;99.90;;;;;;5073770;28;20048;-84
2021/07/20 06:17:11;;;;;;;5.90;3.50;;;17.60;99.90;;;;;;5073526;28;20233;-81
2021/07/20 06:19:39;;;;;;;7.82;4.28;;;17.80;99.90;;;;;;5072884;28;20040;-81
2021/07/20 06:22:09;;;;;;;3.28;2.97;;;17.90;99.90;;;;;;5073554;28;20045;-82
2021/07/20 06:24:42;;;;;;;5.18;4.13;;;18.00;99.90;;;;;;5073146;28;20044;-81
2021/07/20 06:27:11;;;;;;;3.72;3.33;;;18.20;99.90;;;;;;5081233;28;20108;-80
2021/07/20 06:29:38;;;;;;;6.10;3.42;;;18.50;99.90;;;;;;5097423;28;20037;-79
2021/07/20 06:32:08;;;;;;;4.72;3.10;;;18.80;99.90;;;;;;5097955;28;20025;-79
2021/07/20 06:34:36;;;;;;;3.53;2.97;;;18.90;99.90;;;;;;5097954;28;20024;-79
2021/07/20 06:37:03;;;;;;;4.45;2.45;;;19.10;99.90;;;;;;5097929;28;20079;-89
2021/07/20 06:39:30;;;;;;;4.55;3.13;;;19.30;99.90;;;;;;5096320;28;20036;-79
2021/07/20 06:41:59;;;;;;;7.15;3.78;;;19.30;99.90;;;;;;5083619;28;20044;-82
2021/07/20 06:44:27;;;;;;;5.72;3.13;;;19.30;99.90;;;;;;5075730;28;20075;-80
2021/07/20 06:46:55;;;;;;;3.53;2.70;;;19.10;99.90;;;;;;5075984;28;20094;-82
2021/07/20 06:49:23;;;;;;;4.38;2.83;;;19.20;99.90;;;;;;5076836;28;20049;-82
2021/07/20 06:51:50;;;;;;;4.38;3.00;;;19.50;99.90;;;;;;5077314;28;20052;-82
2021/07/20 06:54:17;;;;;;;4.05;3.53;;;20.10;99.90;;;;;;5076130;28;20106;-84
2021/07/20 06:56:48;;;;;;;3.78;2.85;;;20.60;99.90;;;;;;5076734;28;20044;-81
2021/07/20 06:59:18;;;;;;;4.93;3.25;;;20.60;99.90;;;;;;5077134;28;20044;-83
2021/07/20 07:01:45;;;;;;;4.78;3.50;;;20.70;99.90;;;;;;5077065;28;20048;-82
2021/07/20 07:04:26;;;;;;;4.72;3.42;;;21.00;99.90;;;;;;5077073;28;20487;-83
2021/07/20 07:06:57;;;;;;;8.60;3.67;;;21.10;99.90;;;;;;5077070;28;20045;-83
2021/07/20 07:09:25;;;;;;;3.40;2.90;;;21.10;99.90;;;;;;5076529;28;20420;-83
2021/07/20 07:11:53;;;;;;;3.83;2.70;;;21.30;99.90;;;;;;5077355;28;20747;-84
2021/07/20 07:14:20;;;;;;;6.90;3.10;;;21.30;99.90;;;;;;5077563;28;20101;-83
2021/07/20 07:16:48;;;;;;;3.67;2.90;;;21.30;99.90;;;;;;5076985;28;20056;-83
2021/07/20 07:19:16;;;;;;;6.22;3.70;;;21.40;99.90;;;;;;5078001;28;20053;-83
2021/07/20 07:21:45;;;;;;;3.15;2.95;;;21.40;99.90;;;;;;5079242;28;20041;-82
2021/07/20 07:24:13;;;;;;;4.78;3.30;;;21.50;99.90;;;;;;5082448;28;20048;-82
2021/07/20 07:26:40;;;;;;;4.93;2.25;;;21.70;99.90;;;;;;5079300;28;20052;-81
2021/07/20 07:29:09;;;;;;;7.10;3.92;;;21.90;99.90;;;;;;5078766;28;20044;-82
2021/07/20 07:31:35;;;;;;;3.78;2.53;;;22.20;99.60;;;;;;5079195;28;20467;-83
2021/07/20 07:34:02;;;;;;;8.25;4.68;;;22.40;97.10;;;;;;5079257;28;20056;-83
2021/07/20 07:36:30;;;;;;;6.78;5.22;;;22.40;95.60;;;;;;5078449;28;20059;-83
2021/07/20 07:39:02;;;;;;;14.18;8.70;;;22.30;93.70;;;;;;5077239;28;20044;-83
2021/07/20 07:41:33;;;;;;;10.25;4.93;;;22.70;95.70;;;;;;5078734;28;20123;-83
2021/07/20 07:44:02;;;;;;;8.00;3.65;;;22.70;96.20;;;;;;5079271;28;20044;-82
2021/07/20 07:46:30;;;;;;;3.53;2.78;;;22.80;96.70;;;;;;5078590;28;20049;-82
2021/07/20 07:48:58;;;;;;;6.97;4.68;;;23.00;96.40;;;;;;5080178;28;20395;-83
2021/07/20 07:51:25;;;;;;;5.25;3.45;;;23.00;95.00;;;;;;5081713;28;20485;-84
2021/07/20 07:53:53;;;;;;;7.65;5.25;;;23.10;91.50;;;;;;5081267;28;20493;-81
2021/07/20 07:56:21;;;;;;;4.97;2.50;;;23.40;90.30;;;;;;5077856;28;20483;-81
2021/07/20 07:58:48;;;;;;;5.10;3.45;;;23.40;82.80;;;;;;5076174;28;20097;-81
2021/07/20 08:01:16;;;;;;;10.48;4.80;;;23.40;81.90;;;;;;5077451;28;20045;-80
2021/07/20 08:03:46;;;;;;;3.67;2.80;;;23.10;78.70;;;;;;5078042;28;20048;-81
2021/07/20 08:06:19;;;;;;;8.23;4.80;;;23.40;83.80;;;;;;5076829;28;20049;-81
2021/07/20 08:08:48;;;;;;;3.28;2.03;;;23.10;86.20;;;;;;5075682;28;20048;-81
2021/07/20 08:11:15;;;;;;;4.45;2.85;;;23.00;84.50;;;;;;5076862;28;20052;-80
2021/07/20 08:13:47;;;;;;;18.45;11.18;;;22.60;89.30;;;;;;5077163;28;20161;-82
2021/07/20 08:16:15;;;;;;;20.67;11.13;;;22.40;88.00;;;;;;5077477;28;20094;-82
2021/07/20 08:18:44;;;;;;;14.95;8.20;;;22.30;89.40;;;;;;5079559;28;20533;-81
2021/07/20 08:21:11;;;;;;;5.10;3.90;;;22.40;90.10;;;;;;5079981;28;20062;-82
2021/07/20 08:23:38;;;;;;;3.63;3.33;;;22.50;90.50;;;;;;5080419;28;20048;-80
2021/07/20 08:26:07;;;;;;;3.92;2.92;;;22.40;93.30;;;;;;5080061;28;20041;-82
2021/07/20 08:28:39;;;;;;;4.57;2.05;;;22.40;90.90;;;;;;5078618;28;20059;-80
2021/07/20 08:31:09;;;;;;;3.67;2.80;;;22.30;83.00;;;;;;5080084;28;20049;-80
2021/07/20 08:33:38;;;;;;;10.05;4.90;;;22.20;88.80;;;;;;5080758;28;20102;-80
2021/07/20 08:36:08;;;;;;;6.47;3.80;;;22.00;88.70;;;;;;5081343;28;20052;-81
2021/07/20 08:38:35;;;;;;;9.40;5.70;;;21.60;87.60;;;;;;5080540;28;20052;-81
2021/07/20 08:41:12;;;;;;;11.43;7.28;;;21.50;89.40;;;;;;5078549;28;20087;-82
2021/07/20 08:43:51;;;;;;;36.72;22.55;;;21.50;90.20;;;;;;5080396;28;20053;-81
2021/07/20 08:46:31;;;;;;;11.20;6.55;;;21.30;91.50;;;;;;5079693;28;20044;-82
2021/07/20 08:49:06;;;;;;;12.93;8.65;;;21.50;90.60;;;;;;5078630;28;20603;-81
2021/07/20 08:51:39;;;;;;;8.43;5.40;;;21.50;91.10;;;;;;5079034;28;20048;-81
2021/07/20 08:54:10;;;;;;;20.23;10.43;;;21.40;88.70;;;;;;5079015;28;20052;-82
2021/07/20 08:56:42;;;;;;;9.43;6.30;;;21.50;89.70;;;;;;5079462;28;20481;-82
2021/07/20 08:59:14;;;;;;;9.73;6.18;;;21.70;91.10;;;;;;5078621;28;20094;-81
2021/07/20 09:01:49;;;;;;;3.95;2.70;;;22.00;90.30;;;;;;5079016;28;20044;-82
2021/07/20 09:04:21;;;;;;;4.70;3.28;;;22.60;87.70;;;;;;5079527;28;20070;-81
2021/07/20 09:06:51;;;;;;;13.18;8.75;;;23.40;83.50;;;;;;5081125;28;20041;-81
2021/07/20 09:09:24;;;;;;;10.02;6.03;;;23.80;82.40;;;;;;5079535;28;20048;-81
2021/07/20 09:11:55;;;;;;;2.25;1.95;;;23.20;78.70;;;;;;5080404;28;20112;-81
2021/07/20 09:14:27;;;;;;;10.52;6.43;;;22.60;77.20;;;;;;5079685;28;20094;-80
2021/07/20 09:17:04;;;;;;;16.52;9.55;;;22.20;82.10;;;;;;5090568;28;20045;-81
2021/07/20 09:19:35;;;;;;;10.70;6.40;;;21.90;85.80;;;;;;5077025;28;20101;-80
2021/07/20 09:22:17;;;;;;;6.75;4.15;;;21.80;85.60;;;;;;5077534;28;20130;-81
2021/07/20 09:24:54;;;;;;;4.15;2.25;;;21.50;84.90;;;;;;5078433;28;20048;-81
2021/07/20 09:27:28;;;;;;;5.38;2.67;;;21.20;82.50;;;;;;5078628;28;20052;-81
2021/07/20 09:29:57;;;;;;;5.22;3.40;;;21.00;85.30;;;;;;5080797;28;20094;-81
2021/07/20 09:32:39;;;;;;;3.95;3.25;;;21.00;89.10;;;;;;5080131;28;20087;-81
2021/07/20 09:35:11;;;;;;;4.25;2.88;;;20.90;90.00;;;;;;5079614;28;20056;-81
2021/07/20 09:37:47;;;;;;;3.85;3.33;;;20.70;85.50;;;;;;5080789;28;20094;-83
2021/07/20 09:40:39;;;;;;;5.03;3.53;;;20.70;83.80;;;;;;5079782;28;20048;-80
2021/07/20 09:43:08;;;;;;;3.90;2.30;;;20.80;80.90;;;;;;5081322;28;20234;-81
2021/07/20 09:45:41;;;;;;;4.22;2.28;;;20.70;79.10;;;;;;5081775;28;20094;-81
2021/07/20 09:48:23;;;;;;;8.07;5.32;;;20.70;80.80;;;;;;5082317;28;20106;-82
2021/07/20 09:51:09;;;;;;;2.30;2.10;;;21.30;85.00;;;;;;5081702;28;20102;-82
2021/07/20 09:54:08;;;;;;;5.82;4.07;;;21.70;80.20;;;;;;5080574;28;20118;-80
2021/07/20 09:56:53;;;;;;;2.97;2.50;;;22.20;78.60;;;;;;5080243;28;20044;-81
2021/07/20 09:59:38;;;;;;;4.25;3.05;;;22.90;77.20;;;;;;5079718;28;20049;-81
2021/07/20 10:02:10;;;;;;;3.67;2.00;;;22.70;73.20;;;;;;5079026;28;20511;-80
2021/07/20 10:04:52;;;;;;;2.47;2.00;;;22.10;72.60;;;;;;5078767;28;20049;-81
2021/07/20 10:07:28;;;;;;;4.70;2.80;;;22.30;71.70;;;;;;5078954;28;20045;-80
2021/07/20 10:10:03;;;;;;;4.07;2.83;;;22.80;72.90;;;;;;5079002;28;20102;-81
2021/07/20 10:12:36;;;;;;;4.90;2.00;;;22.90;70.00;;;;;;5078678;28;20052;-80
2021/07/20 10:15:05;;;;;;;5.50;3.85;;;22.70;71.70;;;;;;5081000;28;20078;-83
2021/07/20 10:17:36;;;;;;;5.47;3.38;;;22.40;72.90;;;;;;5082156;28;20044;-82
2021/07/20 10:20:12;;;;;;;4.47;2.40;;;22.70;71.10;;;;;;5079539;28;20048;-83
2021/07/20 10:22:44;;;;;;;3.75;2.05;;;23.60;69.80;;;;;;5080615;28;20048;-82
2021/07/20 10:25:17;;;;;;;3.22;2.20;;;24.40;68.90;;;;;;5081067;28;20048;-81
2021/07/20 10:27:49;;;;;;;3.80;2.30;;;25.10;65.70;;;;;;5081176;28;20059;-82
2021/07/20 10:30:16;;;;;;;;;;;24.70;64.70;;;;;;5079340;28;20118;-80
2021/07/20 10:32:54;;;;;;;3.17;2.60;;;24.40;67.50;;;;;;5079414;28;19949;-80
2021/07/20 10:35:28;;;;;;;4.18;2.33;;;24.10;71.60;;;;;;5079139;28;20056;-82
2021/07/20 10:38:00;;;;;;;2.75;2.17;;;23.40;68.80;;;;;;5079032;28;20075;-82
2021/07/20 10:40:30;;;;;;;15.30;8.38;;;22.80;73.50;;;;;;5079585;28;20113;-80
2021/07/20 10:43:01;;;;;;;5.68;4.57;;;22.50;78.50;;;;;;5080935;28;20041;-83
2021/07/20 10:45:33;;;;;;;13.43;7.78;;;23.00;76.60;;;;;;5078175;28;20511;-82
2021/07/20 10:48:04;;;;;;;7.53;4.97;;;23.30;74.80;;;;;;5079430;28;20105;-82
2021/07/20 10:50:36;;;;;;;15.02;8.43;;;23.10;76.90;;;;;;5079978;28;20045;-81
2021/07/20 10:53:07;;;;;;;7.00;4.95;;;23.20;78.60;;;;;;5080616;28;20044;-81
2021/07/20 10:55:48;;;;;;;4.63;3.28;;;23.40;78.20;;;;;;5078880;28;20491;-82
2021/07/20 10:58:26;;;;;;;5.80;3.72;;;23.40;73.30;;;;;;5080607;28;20071;-81
2021/07/20 11:00:59;;;;;;;3.28;2.35;;;23.60;75.60;;;;;;5081868;28;20508;-81
2021/07/20 11:03:58;;;;;;;3.90;3.00;;;23.40;71.70;;;;;;5081121;28;20102;-80
2021/07/20 11:06:28;;;;;;;5.38;3.72;;;23.50;74.80;;;;;;5075285;28;20056;-82
2021/07/20 11:08:58;;;;;;;3.10;2.05;;;23.60;77.40;;;;;;5073050;28;20101;-80
2021/07/20 11:11:28;;;;;;;4.88;2.55;;;23.30;76.00;;;;;;5074613;28;20104;-80
2021/07/20 11:13:56;;;;;;;1.85;1.75;;;23.10;76.00;;;;;;5075196;28;20057;-80
2021/07/20 11:16:25;;;;;;;7.10;3.70;;;23.00;76.10;;;;;;5074832;28;20044;-80
2021/07/20 11:18:52;;;;;;;4.18;2.83;;;23.10;77.40;;;;;;5074794;28;20041;-79
2021/07/20 11:21:24;;;;;;;6.03;4.22;;;23.00;78.00;;;;;;5075295;28;20492;-79
2021/07/20 11:23:53;;;;;;;;;;;23.10;79.30;;;;;;5077422;28;20416;-81
2021/07/20 11:26:21;;;;;;;4.53;3.95;;;23.20;78.20;;;;;;5076865;28;19927;-80
2021/07/20 11:28:48;;;;;;;5.22;2.50;;;23.30;75.00;;;;;;5076501;28;20102;-79
2021/07/20 11:31:26;;;;;;;4.30;2.70;;;23.40;79.90;;;;;;5078845;28;20055;-81
2021/07/20 11:33:57;;;;;;;2.70;2.00;;;23.40;74.80;;;;;;5079898;28;20049;-80
2021/07/20 11:36:27;;;;;;;4.72;3.33;;;23.50;73.60;;;;;;5077183;28;20083;-79
2021/07/20 11:38:58;;;;;;;5.28;3.03;;;23.50;73.50;;;;;;5076177;28;20074;-82
2021/07/20 11:41:39;;;;;;;7.70;3.65;;;23.50;73.10;;;;;;5077837;28;20489;-80
2021/07/20 11:44:26;;;;;;;4.68;3.15;;;24.00;77.00;;;;;;5078971;28;20541;-80
2021/07/20 11:46:59;;;;;;;3.88;2.33;;;24.50;75.00;;;;;;5077237;28;20048;-79
2021/07/20 11:49:34;;;;;;;3.38;2.22;;;24.80;71.00;;;;;;5076990;28;20546;-79
2021/07/20 11:52:04;;;;;;;2.70;2.05;;;25.40;72.70;;;;;;5080869;28;20052;-80
2021/07/20 11:54:40;;;;;;;4.07;3.03;;;27.00;68.70;;;;;;5081322;28;20068;-80
2021/07/20 11:57:57;;;;;;;8.70;4.85;;;27.30;66.70;;;;;;5082290;28;20047;-79
2021/07/20 12:00:45;;;;;;;5.28;3.72;;;26.90;59.50;;;;;;5082242;28;20484;-78
2021/07/20 12:03:20;;;;;;;5.25;3.13;;;27.10;65.80;;;;;;5081303;28;20120;-79
2021/07/20 12:06:02;;;;;;;13.85;11.20;;;26.20;67.00;;;;;;5082152;28;20094;-79
2021/07/20 12:08:39;;;;;;;4.95;3.00;;;26.10;69.00;;;;;;5083303;28;20058;-82
2021/07/20 12:11:17;;;;;;;5.35;2.10;;;25.40;71.00;;;;;;5081291;28;20044;-79
2021/07/20 12:13:44;;;;;;;2.45;2.08;;;24.80;73.40;;;;;;5081423;28;20044;-79
2021/07/20 12:16:12;;;;;;;2.63;2.40;;;24.60;73.20;;;;;;5082100;28;20060;-81
2021/07/20 12:18:47;;;;;;;3.42;2.55;;;24.40;71.50;;;;;;5083175;28;20040;-81
2021/07/20 12:21:16;;;;;;;3.78;2.15;;;24.60;73.00;;;;;;5084688;28;20110;-80
2021/07/20 12:23:43;;;;;;;3.45;2.85;;;24.90;75.60;;;;;;5080574;28;20097;-79
2021/07/20 12:26:12;;;;;;;5.32;2.83;;;25.30;71.40;;;;;;5078415;28;20060;-78
2021/07/20 12:28:43;;;;;;;5.03;2.80;;;25.80;71.60;;;;;;5079883;28;20052;-80
2021/07/20 12:31:10;;;;;;;3.50;2.85;;;26.30;70.90;;;;;;5080735;28;20421;-79
2021/07/20 12:33:41;;;;;;;4.63;4.10;;;26.50;67.60;;;;;;5080619;28;20044;-78
2021/07/20 12:36:08;;;;;;;7.18;5.63;;;26.50;70.50;;;;;;5080343;28;20056;-79
2021/07/20 12:38:35;;;;;;;4.13;3.08;;;26.60;69.70;;;;;;5079707;28;20049;-79
2021/07/20 12:41:09;;;;;;;3.72;2.75;;;26.90;67.60;;;;;;5081067;28;20045;-79
2021/07/20 12:43:40;;;;;;;6.63;5.35;;;26.40;67.10;;;;;;5082666;28;20048;-79
2021/07/20 12:46:12;;;;;;;3.28;2.42;;;26.30;68.20;;;;;;5082368;28;20079;-78
2021/07/20 12:48:47;;;;;;;3.92;2.85;;;26.10;68.50;;;;;;5081185;28;20048;-79
2021/07/20 12:51:15;;;;;;;4.32;3.40;;;25.40;71.80;;;;;;5082196;28;20135;-79
2021/07/20 12:53:42;;;;;;;5.43;3.10;;;25.00;75.70;;;;;;5082362;28;20054;-80
2021/07/20 12:56:10;;;;;;;4.95;3.70;;;24.50;73.50;;;;;;5082552;28;20113;-79
2021/07/20 12:58:38;;;;;;;5.82;3.33;;;24.30;75.70;;;;;;5087005;28;20076;-78
2021/07/20 13:01:05;;;;;;;3.03;2.22;;;24.00;76.70;;;;;;5077859;28;20098;-78